Time;durP1;ratioP1;P1;durP2;ratioP2;P2;SDS_P1;SDS_P2;PMS_P1;PMS_P2;Temp;Humidity;BMP_temperature;BMP_pressure;BME280_temperature;BME280_humidity;BME280_pressure;Samples;Min_cycle;Max_cycle;Signal;HPM_P1;HPM_P2
2022/03/26 00:00:55;;;;;;;44.97;25.85;;;7.90;72.10;;;;;;5073054;27;89391;-71
2022/03/26 00:03:22;;;;;;;48.03;25.08;;;7.90;72.20;;;;;;5056416;27;88996;-72
2022/03/26 00:05:49;;;;;;;44.20;24.38;;;7.80;72.20;;;;;;5057288;27;89476;-71
2022/03/26 00:08:16;;;;;;;44.72;27.05;;;7.80;72.20;;;;;;5056133;27;91538;-72
2022/03/26 00:10:43;;;;;;;50.78;26.58;;;7.80;72.40;;;;;;5057448;27;88454;-71
2022/03/26 00:13:10;;;;;;;49.13;26.13;;;7.80;72.60;;;;;;5057411;27;88632;-72
2022/03/26 00:15:37;;;;;;;52.55;28.95;;;7.70;72.70;;;;;;5073177;27;91859;-71
2022/03/26 00:18:04;;;;;;;50.17;27.23;;;7.80;73.10;;;;;;5072522;27;100505;-71
2022/03/26 00:20:31;;;;;;;52.50;29.75;;;7.70;73.40;;;;;;5057097;27;88508;-71
2022/03/26 00:22:58;;;;;;;50.92;29.10;;;7.70;73.30;;;;;;5056987;27;88818;-72
2022/03/26 00:25:25;;;;;;;52.67;28.88;;;7.70;73.30;;;;;;5072918;27;89430;-71
2022/03/26 00:27:52;;;;;;;53.70;29.52;;;7.70;73.60;;;;;;5057075;27;88816;-71
2022/03/26 00:30:19;;;;;;;56.78;32.55;;;7.60;73.70;;;;;;5055698;27;90801;-71
2022/03/26 00:32:46;;;;;;;50.63;28.67;;;7.60;73.80;;;;;;5057046;27;88765;-71
2022/03/26 00:35:13;;;;;;;51.67;29.58;;;7.60;74.10;;;;;;5072880;27;91922;-71
2022/03/26 00:37:40;;;;;;;51.75;28.02;;;7.60;74.40;;;;;;5072177;27;107940;-71
2022/03/26 00:40:09;;;;;;;50.85;27.50;;;7.60;74.50;;;;;;5074254;27;89540;-71
2022/03/26 00:42:36;;;;;;;58.08;31.20;;;7.50;74.70;;;;;;5059500;27;92128;-72
2022/03/26 00:45:04;;;;;;;55.42;30.92;;;7.50;75.00;;;;;;5060397;27;89326;-71
2022/03/26 00:47:31;;;;;;;63.08;34.72;;;7.50;75.20;;;;;;5060661;27;89020;-71
2022/03/26 00:49:58;;;;;;;62.08;32.75;;;7.40;75.50;;;;;;5075845;27;91076;-71
2022/03/26 00:52:25;;;;;;;68.75;35.40;;;7.40;76.00;;;;;;5042113;27;89953;-71
2022/03/26 00:54:52;;;;;;;63.30;34.80;;;7.40;76.20;;;;;;5060210;27;88947;-71
2022/03/26 00:57:19;;;;;;;63.28;34.35;;;7.40;76.30;;;;;;5076106;27;91768;-71
2022/03/26 00:59:46;;;;;;;68.00;34.33;;;7.30;76.30;;;;;;5060666;27;88545;-71
2022/03/26 01:02:13;;;;;;;71.65;36.83;;;7.30;76.50;;;;;;5060529;27;88871;-71
2022/03/26 01:04:40;;;;;;;68.13;34.17;;;7.30;76.60;;;;;;5075980;27;89319;-71
2022/03/26 01:07:07;;;;;;;67.90;35.90;;;7.30;76.70;;;;;;5059933;27;88792;-71
2022/03/26 01:09:34;;;;;;;70.35;36.65;;;7.20;76.70;;;;;;5059062;27;88493;-71
2022/03/26 01:12:02;;;;;;;66.00;32.65;;;7.20;76.80;;;;;;5059782;27;101591;-71
2022/03/26 01:14:29;;;;;;;66.93;34.72;;;7.20;77.00;;;;;;5075602;27;91051;-71
2022/03/26 01:16:56;;;;;;;68.88;34.85;;;7.10;77.10;;;;;;5075763;27;89032;-71
2022/03/26 01:19:23;;;;;;;65.25;34.75;;;7.10;77.30;;;;;;5058306;27;88988;-71
2022/03/26 01:21:50;;;;;;;67.20;35.42;;;7.10;77.30;;;;;;5075979;27;89185;-71
2022/03/26 01:24:17;;;;;;;65.30;33.92;;;7.00;77.40;;;;;;5060381;27;89549;-71
2022/03/26 01:26:44;;;;;;;64.15;34.65;;;7.00;77.70;;;;;;5058891;27;89154;-71
2022/03/26 01:29:12;;;;;;;65.43;35.33;;;7.00;78.00;;;;;;5059920;27;88839;-71
2022/03/26 01:31:39;;;;;;;69.63;36.13;;;7.00;78.20;;;;;;5075259;27;92053;-71
2022/03/26 01:34:06;;;;;;;69.03;35.65;;;6.90;78.30;;;;;;5058301;27;89459;-71
2022/03/26 01:36:33;;;;;;;73.53;36.10;;;6.90;78.60;;;;;;5059729;27;90321;-71
2022/03/26 01:39:00;;;;;;;65.97;34.90;;;6.80;78.70;;;;;;5059657;27;88466;-71
2022/03/26 01:41:27;;;;;;;67.88;35.40;;;6.90;78.80;;;;;;5058068;27;96459;-71
2022/03/26 01:43:54;;;;;;;73.22;35.10;;;6.80;78.80;;;;;;5059434;27;88418;-71
2022/03/26 01:46:21;;;;;;;73.03;36.05;;;6.80;79.00;;;;;;5041572;27;91518;-71
2022/03/26 01:48:49;;;;;;;68.57;36.67;;;6.80;79.10;;;;;;5059926;27;88396;-71
2022/03/26 01:51:17;;;;;;;72.72;36.55;;;6.80;79.20;;;;;;5040289;27;90384;-71
2022/03/26 01:53:52;;;;;;;71.75;36.38;;;6.80;79.40;;;;;;5059803;27;89310;-71
2022/03/26 01:56:21;;;;;;;71.35;36.47;;;6.80;79.50;;;;;;5074794;27;91682;-71
2022/03/26 01:58:48;;;;;;;71.28;36.25;;;6.70;79.60;;;;;;5059478;27;88358;-71
2022/03/26 02:01:15;;;;;;;69.88;36.45;;;6.70;79.70;;;;;;5074807;27;88593;-71
2022/03/26 02:03:42;;;;;;;77.07;37.50;;;6.70;80.00;;;;;;5058265;27;89194;-71
2022/03/26 02:06:09;;;;;;;74.30;39.33;;;6.60;80.20;;;;;;5057620;27;99561;-71
2022/03/26 02:08:36;;;;;;;79.75;37.88;;;6.60;80.50;;;;;;5075109;27;90911;-71
2022/03/26 02:11:04;;;;;;;76.85;38.25;;;6.60;80.70;;;;;;5059162;27;88890;-71
2022/03/26 02:13:54;;;;;;;74.93;38.30;;;6.50;80.90;;;;;;5058295;27;89376;-71
2022/03/26 02:16:22;;;;;;;70.65;32.75;;;6.60;81.10;;;;;;5058978;27;91682;-71
2022/03/26 02:18:50;;;;;;;73.30;35.45;;;6.50;81.30;;;;;;5074533;27;90975;-71
2022/03/26 02:21:18;;;;;;;64.03;31.73;;;6.50;81.40;;;;;;5058768;27;89603;-71
2022/03/26 02:23:47;;;;;;;58.67;30.40;;;6.50;81.40;;;;;;5058938;27;89357;-71
2022/03/26 02:26:16;;;;;;;63.30;30.63;;;6.40;81.40;;;;;;5058689;27;88931;-71
2022/03/26 02:28:46;;;;;;;54.88;27.65;;;6.40;81.40;;;;;;5059002;27;88472;-71
2022/03/26 02:31:14;;;;;;;54.00;27.77;;;6.40;81.60;;;;;;5057086;27;91454;-71
2022/03/26 02:33:42;;;;;;;60.78;28.45;;;6.30;81.60;;;;;;5074630;27;92146;-71
2022/03/26 02:36:09;;;;;;;54.25;27.70;;;6.30;81.70;;;;;;5058255;27;98969;-71
2022/03/26 02:38:37;;;;;;;54.42;28.20;;;6.30;81.80;;;;;;5057962;27;88528;-71
2022/03/26 02:41:05;;;;;;;56.25;28.27;;;6.20;82.50;;;;;;5074073;27;88688;-71
2022/03/26 02:43:32;;;;;;;54.47;28.42;;;6.20;82.00;;;;;;5057310;27;89502;-71
2022/03/26 02:46:00;;;;;;;56.95;29.00;;;6.20;82.00;;;;;;5057513;27;88787;-71
2022/03/26 02:48:28;;;;;;;57.60;28.65;;;6.20;82.20;;;;;;5058643;27;88412;-71
2022/03/26 02:50:55;;;;;;;69.50;31.60;;;6.10;82.30;;;;;;5057334;27;91320;-71
2022/03/26 02:53:22;;;;;;;58.75;30.33;;;6.10;82.40;;;;;;5058275;27;89524;-71
2022/03/26 02:55:50;;;;;;;59.38;30.50;;;6.10;82.60;;;;;;5040384;27;94377;-71
2022/03/26 02:58:17;;;;;;;61.45;30.98;;;6.10;82.60;;;;;;5058172;27;88910;-72
2022/03/26 03:00:44;;;;;;;63.35;31.42;;;6.00;82.80;;;;;;5057996;27;98763;-71
2022/03/26 03:03:12;;;;;;;67.57;31.70;;;6.00;83.00;;;;;;5073167;27;92297;-71
2022/03/26 03:05:39;;;;;;;67.93;30.95;;;6.00;83.20;;;;;;5057225;27;89015;-71
2022/03/26 03:08:06;;;;;;;68.22;31.13;;;6.00;83.30;;;;;;5073793;27;89567;-71
2022/03/26 03:10:32;;;;;;;60.08;30.48;;;6.00;83.40;;;;;;5073784;27;89468;-71
2022/03/26 03:13:00;;;;;;;62.15;30.60;;;6.00;83.40;;;;;;5056859;27;91721;-71
2022/03/26 03:15:27;;;;;;;60.03;30.35;;;5.90;83.50;;;;;;5057968;27;88910;-71
2022/03/26 03:17:54;;;;;;;68.63;32.13;;;5.90;83.70;;;;;;5073948;27;88539;-71
2022/03/26 03:20:21;;;;;;;72.13;32.88;;;5.90;83.80;;;;;;5057445;27;88793;-71
2022/03/26 03:22:48;;;;;;;71.20;33.90;;;5.90;83.90;;;;;;5058215;27;89472;-71
2022/03/26 03:25:15;;;;;;;73.15;34.03;;;5.80;84.00;;;;;;5056610;27;89020;-71
2022/03/26 03:27:42;;;;;;;69.60;35.40;;;5.80;84.10;;;;;;5057147;27;91151;-71
2022/03/26 03:30:10;;;;;;;72.47;34.85;;;5.80;84.10;;;;;;5073889;27;88933;-71
2022/03/26 03:32:37;;;;;;;84.28;36.75;;;5.80;84.30;;;;;;5057982;27;89391;-71
2022/03/26 03:35:05;;;;;;;75.97;35.90;;;5.70;84.40;;;;;;5056551;27;89016;-71
2022/03/26 03:37:37;;;;;;;79.93;37.25;;;5.70;84.50;;;;;;5056319;27;91377;-71
2022/03/26 03:40:05;;;;;;;79.97;37.83;;;5.70;84.50;;;;;;5073488;27;91302;-71
2022/03/26 03:42:33;;;;;;;85.95;37.53;;;5.70;84.70;;;;;;5057622;27;89265;-71
2022/03/26 03:45:00;;;;;;;79.72;36.63;;;5.70;84.70;;;;;;5073396;27;91517;-71
2022/03/26 03:47:27;;;;;;;82.05;38.08;;;5.70;84.70;;;;;;5057461;27;88483;-71
2022/03/26 03:49:54;;;;;;;78.28;37.58;;;5.70;84.70;;;;;;5073375;27;91266;-71
2022/03/26 03:52:21;;;;;;;78.70;37.75;;;5.70;84.60;;;;;;5057863;27;89445;-71
2022/03/26 03:54:47;;;;;;;84.05;37.97;;;5.60;84.70;;;;;;5057911;27;89061;-71
2022/03/26 03:57:14;;;;;;;79.43;37.35;;;5.60;84.70;;;;;;5057462;27;88442;-71
2022/03/26 03:59:41;;;;;;;81.22;37.15;;;5.60;84.80;;;;;;5073095;27;90678;-71
2022/03/26 04:02:09;;;;;;;84.15;38.00;;;5.60;84.80;;;;;;5056306;27;89971;-71
2022/03/26 04:04:38;;;;;;;81.00;38.33;;;5.60;84.90;;;;;;5072622;27;91802;-71
2022/03/26 04:07:07;;;;;;;80.35;38.13;;;5.50;85.00;;;;;;5057291;27;88858;-71
2022/03/26 04:09:35;;;;;;;82.30;37.67;;;5.50;85.20;;;;;;5072992;27;91431;-71
2022/03/26 04:12:02;;;;;;;83.65;37.88;;;5.50;85.30;;;;;;5073319;27;89432;-71
2022/03/26 04:14:31;;;;;;;82.60;39.15;;;5.50;85.30;;;;;;5072618;27;88944;-71
2022/03/26 04:16:58;;;;;;;88.65;38.70;;;5.50;85.30;;;;;;5055742;27;104589;-71
2022/03/26 04:19:25;;;;;;;86.43;38.92;;;5.50;85.50;;;;;;5056782;27;88666;-71
2022/03/26 04:21:54;;;;;;;84.63;38.92;;;5.50;85.60;;;;;;5057464;27;89334;-71
2022/03/26 04:24:21;;;;;;;88.28;39.88;;;5.50;85.60;;;;;;5056983;27;89046;-71
2022/03/26 04:26:51;;;;;;;83.18;35.97;;;5.50;85.80;;;;;;5057284;27;89390;-71
2022/03/26 04:29:19;;;;;;;80.93;37.15;;;5.50;86.10;;;;;;5055508;27;88725;-71
2022/03/26 04:31:46;;;;;;;91.32;41.63;;;5.40;86.60;;;;;;5055912;27;89354;-71
2022/03/26 04:34:13;;;;;;;92.65;41.03;;;5.40;86.90;;;;;;5072637;27;91686;-71
2022/03/26 04:36:40;;;;;;;89.95;41.42;;;5.40;87.20;;;;;;5072686;27;88452;-71
2022/03/26 04:39:07;;;;;;;87.43;40.42;;;5.40;87.50;;;;;;5057120;27;88657;-71
2022/03/26 04:41:34;;;;;;;74.30;35.05;;;5.40;87.50;;;;;;5072314;27;99855;-71
2022/03/26 04:44:02;;;;;;;80.22;35.75;;;5.40;87.20;;;;;;5056796;27;89546;-71
2022/03/26 04:46:29;;;;;;;82.20;35.22;;;5.30;87.20;;;;;;5055554;27;88537;-71
2022/03/26 04:48:56;;;;;;;79.68;35.67;;;5.30;87.30;;;;;;5072606;27;88928;-71
2022/03/26 04:51:24;;;;;;;77.00;35.10;;;5.30;86.60;;;;;;5038707;27;91940;-71
2022/03/26 04:53:51;;;;;;;74.72;35.78;;;5.30;86.30;;;;;;5057009;27;88890;-71
2022/03/26 04:56:18;;;;;;;82.13;38.30;;;5.30;86.30;;;;;;5072640;27;88481;-71
2022/03/26 04:58:45;;;;;;;79.47;38.22;;;5.30;86.40;;;;;;5055477;27;91656;-71
2022/03/26 05:01:12;;;;;;;83.47;36.72;;;5.30;86.50;;;;;;5038870;27;91950;-71
2022/03/26 05:03:39;;;;;;;84.07;37.90;;;5.20;86.50;;;;;;5055469;27;89161;-71
2022/03/26 05:06:06;;;;;;;107.88;44.72;;;5.20;86.30;;;;;;5057051;27;88530;-71
2022/03/26 05:08:33;;;;;;;88.20;38.80;;;5.20;86.70;;;;;;5056505;27;94738;-71
2022/03/26 05:11:00;;;;;;;104.22;44.67;;;5.30;87.30;;;;;;5056722;27;89593;-71
2022/03/26 05:13:27;;;;;;;122.90;49.25;;;5.30;87.80;;;;;;5038133;27;91642;-71
2022/03/26 05:15:54;;;;;;;138.63;54.58;;;5.30;88.40;;;;;;5056688;27;88593;-71
2022/03/26 05:18:25;;;;;;;143.60;56.40;;;5.30;89.20;;;;;;5055413;27;88765;-71
2022/03/26 05:20:55;;;;;;;132.10;54.92;;;5.30;89.80;;;;;;5071825;27;93006;-71
2022/03/26 05:23:25;;;;;;;145.95;57.05;;;5.30;90.00;;;;;;5055047;27;91473;-71
2022/03/26 05:25:52;;;;;;;157.40;61.47;;;5.40;90.20;;;;;;5073314;27;89484;-71
2022/03/26 05:28:19;;;;;;;137.70;57.30;;;5.40;90.20;;;;;;5060060;27;88882;-71
2022/03/26 05:30:50;;;;;;;157.85;61.10;;;5.40;90.20;;;;;;5059734;27;89529;-71
2022/03/26 05:33:18;;;;;;;142.98;58.85;;;5.50;90.30;;;;;;5060218;27;89032;-71
2022/03/26 05:35:45;;;;;;;152.93;60.20;;;5.50;90.30;;;;;;5059232;27;103731;-71
2022/03/26 05:38:12;;;;;;;144.43;58.10;;;5.40;90.10;;;;;;5058275;27;89485;-71
2022/03/26 05:40:39;;;;;;;147.25;58.25;;;5.50;90.10;;;;;;5059619;27;89513;-71
2022/03/26 05:43:06;;;;;;;140.10;59.67;;;5.50;90.40;;;;;;5059687;27;88967;-71
2022/03/26 05:45:33;;;;;;;149.77;58.15;;;5.60;90.00;;;;;;5058377;27;88666;-71
2022/03/26 05:48:02;;;;;;;154.80;59.60;;;5.60;90.00;;;;;;5075222;27;91263;-71
2022/03/26 05:50:30;;;;;;;150.55;62.33;;;5.70;90.20;;;;;;5058163;27;92085;-71
2022/03/26 05:52:57;;;;;;;157.93;61.72;;;5.70;90.20;;;;;;5059714;27;89183;-71
2022/03/26 05:55:24;;;;;;;156.07;66.68;;;5.80;90.50;;;;;;5024996;27;89642;-71
2022/03/26 05:57:51;;;;;;;165.43;63.53;;;5.80;90.30;;;;;;5075030;27;88627;-71
2022/03/26 06:00:18;;;;;;;137.95;58.15;;;5.90;90.60;;;;;;5059564;27;89339;-71
2022/03/26 06:02:46;;;;;;;128.77;57.83;;;6.00;90.20;;;;;;5074193;27;104576;-71
2022/03/26 06:05:14;;;;;;;138.65;58.40;;;6.10;90.00;;;;;;5041053;27;90872;-71
2022/03/26 06:07:40;;;;;;;125.32;55.75;;;6.20;89.60;;;;;;5059165;27;88812;-71
2022/03/26 06:10:08;;;;;;;122.97;57.03;;;6.50;89.40;;;;;;5059499;27;89409;-71
2022/03/26 06:12:38;;;;;;;119.03;57.10;;;6.70;88.80;;;;;;5059420;27;88886;-71
2022/03/26 06:15:06;;;;;;;120.78;56.13;;;7.00;88.20;;;;;;5059539;27;88506;-71
2022/03/26 06:17:33;;;;;;;117.10;55.30;;;7.30;87.50;;;;;;5058475;27;102141;-71
2022/03/26 06:20:00;;;;;;;111.30;54.28;;;7.60;86.70;;;;;;5057796;27;92040;-71
2022/03/26 06:22:27;;;;;;;109.18;54.00;;;7.90;85.40;;;;;;5057921;27;88915;-71
2022/03/26 06:24:54;;;;;;;105.28;51.38;;;8.20;84.40;;;;;;5059030;27;88544;-71
2022/03/26 06:27:21;;;;;;;99.30;52.45;;;8.50;83.60;;;;;;5074468;27;92174;-71
2022/03/26 06:29:48;;;;;;;101.85;54.17;;;8.90;82.80;;;;;;5040644;27;89486;-71
2022/03/26 06:32:15;;;;;;;96.03;52.65;;;9.20;81.50;;;;;;5057876;27;88935;-71
2022/03/26 06:34:42;;;;;;;102.35;55.75;;;9.50;80.80;;;;;;5040878;27;88576;-71
2022/03/26 06:37:09;;;;;;;102.50;56.05;;;9.90;80.10;;;;;;5057809;27;88842;-71
2022/03/26 06:39:36;;;;;;;103.03;58.75;;;10.20;78.70;;;;;;5074157;27;90483;-71
2022/03/26 06:42:04;;;;;;;103.35;59.13;;;10.60;78.20;;;;;;5058778;27;89065;-71
2022/03/26 06:44:31;;;;;;;109.45;63.05;;;11.00;77.90;;;;;;5058918;27;88545;-71
2022/03/26 06:46:58;;;;;;;113.18;65.68;;;11.50;76.60;;;;;;5057171;27;91702;-71
2022/03/26 06:49:27;;;;;;;121.13;67.85;;;11.90;75.20;;;;;;5058408;27;97106;-71
2022/03/26 06:51:54;;;;;;;114.68;66.90;;;12.20;73.80;;;;;;5058289;27;89043;-72
2022/03/26 06:54:21;;;;;;;114.20;65.85;;;12.40;73.00;;;;;;5057271;27;90937;-72
2022/03/26 06:56:48;;;;;;;114.18;67.75;;;12.60;72.50;;;;;;5058473;27;88926;-71
2022/03/26 06:59:17;;;;;;;114.00;66.80;;;12.70;72.10;;;;;;5073739;27;89181;-72
2022/03/26 07:01:45;;;;;;;111.35;64.80;;;12.80;71.70;;;;;;5040233;27;91829;-71
2022/03/26 07:04:16;;;;;;;113.20;67.97;;;12.80;71.70;;;;;;5058704;27;88394;-72
2022/03/26 07:06:43;;;;;;;110.35;66.35;;;12.80;71.80;;;;;;5058204;27;89045;-72
2022/03/26 07:09:10;;;;;;;107.55;64.28;;;12.90;71.30;;;;;;5058606;27;89369;-71
2022/03/26 07:11:37;;;;;;;116.20;65.40;;;12.90;71.10;;;;;;5056739;27;104581;-72
2022/03/26 07:14:04;;;;;;;106.82;62.50;;;13.00;71.30;;;;;;5074041;27;88560;-72
2022/03/26 07:16:31;;;;;;;108.65;62.50;;;13.00;71.10;;;;;;5056635;27;92315;-72
2022/03/26 07:18:58;;;;;;;102.65;60.15;;;13.10;71.40;;;;;;5057644;27;89544;-72
2022/03/26 07:21:25;;;;;;;104.20;62.55;;;13.20;71.40;;;;;;5040089;27;91719;-72
2022/03/26 07:23:52;;;;;;;102.65;59.97;;;13.30;71.20;;;;;;5057821;27;89548;-72
2022/03/26 07:26:19;;;;;;;94.55;57.75;;;13.50;71.00;;;;;;5058025;27;89067;-72
2022/03/26 07:28:46;;;;;;;96.35;57.50;;;13.80;70.40;;;;;;5073558;27;92136;-72
2022/03/26 07:31:13;;;;;;;97.80;60.42;;;14.20;69.40;;;;;;5058065;27;89569;-72
2022/03/26 07:33:40;;;;;;;89.60;56.58;;;14.60;68.20;;;;;;5058266;27;88704;-72
2022/03/26 07:36:07;;;;;;;93.45;58.03;;;15.00;66.60;;;;;;5057987;27;88821;-72
2022/03/26 07:38:34;;;;;;;90.32;59.55;;;15.30;65.40;;;;;;5057716;27;97527;-72
2022/03/26 07:41:01;;;;;;;84.10;55.30;;;15.80;64.50;;;;;;5057610;27;89020;-72
2022/03/26 07:43:28;;;;;;;82.03;55.83;;;16.20;63.10;;;;;;5056584;27;88496;-72
2022/03/26 07:45:55;;;;;;;84.45;55.53;;;16.60;62.00;;;;;;5057557;27;88876;-72
2022/03/26 07:48:22;;;;;;;83.28;59.17;;;16.90;60.80;;;;;;5056120;27;89512;-72
2022/03/26 07:50:49;;;;;;;82.22;59.30;;;17.30;59.80;;;;;;5057663;27;88950;-72
2022/03/26 07:53:17;;;;;;;76.07;55.35;;;17.70;58.20;;;;;;5073429;27;88832;-72
2022/03/26 07:55:47;;;;;;;78.68;59.60;;;18.10;57.00;;;;;;5057426;27;88866;-73
2022/03/26 07:58:14;;;;;;;75.10;57.90;;;18.60;55.60;;;;;;5057887;27;89231;-73
2022/03/26 08:00:41;;;;;;;75.25;57.47;;;19.00;54.80;;;;;;5073290;27;89054;-73
2022/03/26 08:03:10;;;;;;;74.10;58.35;;;19.30;53.30;;;;;;5057321;27;88664;-73
2022/03/26 08:05:37;;;;;;;73.72;56.80;;;19.60;52.20;;;;;;5072893;27;89561;-73
2022/03/26 08:08:05;;;;;;;72.25;58.72;;;19.80;50.70;;;;;;5073009;27;89072;-73
2022/03/26 08:10:32;;;;;;;70.18;58.15;;;20.20;50.00;;;;;;5057318;27;88932;-73
2022/03/26 08:12:59;;;;;;;65.75;53.53;;;20.50;48.90;;;;;;5056741;27;101699;-73
2022/03/26 08:15:26;;;;;;;65.18;51.95;;;20.90;48.00;;;;;;5056310;27;88671;-73
2022/03/26 08:17:53;;;;;;;59.13;49.20;;;21.20;45.30;;;;;;5057246;27;89969;-73
2022/03/26 08:20:20;;;;;;;63.58;52.35;;;21.20;44.50;;;;;;5056809;27;88564;-73
2022/03/26 08:22:47;;;;;;;61.90;50.95;;;21.20;44.50;;;;;;5057321;27;88491;-73
2022/03/26 08:26:19;;;;;;;57.42;42.95;;;21.30;44.50;;;;;;5055913;27;91468;-73
2022/03/26 08:28:08;;;;;;;58.08;46.03;;;21.00;42.30;;;;;;5055512;27;91842;-73
2022/03/26 08:30:35;;;;;;;61.83;49.95;;;20.80;44.60;;;;;;5056960;27;89634;-73
2022/03/26 08:33:03;;;;;;;54.10;43.75;;;20.60;45.30;;;;;;5072616;27;90916;-73
2022/03/26 08:35:39;;;;;;;56.47;45.50;;;20.20;44.90;;;;;;5057179;27;88658;-73
2022/03/26 08:38:06;;;;;;;56.78;42.38;;;20.00;46.00;;;;;;5057117;27;88520;-73
2022/03/26 08:40:34;;;;;;;60.95;40.97;;;19.10;47.80;;;;;;5072666;27;91375;-73
2022/03/26 08:43:01;;;;;;;53.97;37.22;;;18.80;49.40;;;;;;5056519;27;97163;-73
2022/03/26 08:45:29;;;;;;;52.88;37.00;;;18.20;51.00;;;;;;5072637;27;88934;-73
2022/03/26 08:47:56;;;;;;;56.03;38.13;;;17.80;52.90;;;;;;5056692;27;89365;-74
2022/03/26 08:50:24;;;;;;;52.78;37.58;;;17.50;54.90;;;;;;5057142;27;89109;-73
2022/03/26 08:52:51;;;;;;;61.35;39.95;;;17.00;56.50;;;;;;5055645;27;88569;-73
2022/03/26 08:55:18;;;;;;;48.15;31.25;;;16.70;57.90;;;;;;5072321;27;92026;-73
2022/03/26 08:57:45;;;;;;;48.63;34.03;;;16.40;59.20;;;;;;5055505;27;90825;-73
2022/03/26 09:00:14;;;;;;;53.00;34.95;;;16.10;60.30;;;;;;5038574;27;89193;-73
2022/03/26 09:02:41;;;;;;;51.20;34.60;;;15.90;61.10;;;;;;5058865;27;88567;-73
2022/03/26 09:05:08;;;;;;;47.97;31.35;;;15.80;61.80;;;;;;5058834;27;91452;-72
2022/03/26 09:07:36;;;;;;;45.30;31.38;;;15.70;62.50;;;;;;5058768;27;91899;-72
2022/03/26 09:10:04;;;;;;;44.10;29.02;;;15.60;63.40;;;;;;5060149;27;89080;-72
2022/03/26 09:12:31;;;;;;;46.28;28.70;;;15.50;64.10;;;;;;5060456;27;88461;-72
2022/03/26 09:14:58;;;;;;;51.75;32.35;;;15.30;64.70;;;;;;5058694;27;88906;-73
2022/03/26 09:17:25;;;;;;;44.03;28.40;;;15.30;65.10;;;;;;5058740;27;89572;-73
2022/03/26 09:19:52;;;;;;;47.97;31.50;;;15.20;65.80;;;;;;5058485;27;89420;-72
2022/03/26 09:22:19;;;;;;;53.35;33.95;;;15.20;66.10;;;;;;5058651;27;88561;-72
2022/03/26 09:24:46;;;;;;;47.75;31.35;;;15.20;67.00;;;;;;5060189;27;88536;-72
2022/03/26 09:27:13;;;;;;;46.30;31.65;;;15.30;66.70;;;;;;5059705;27;91406;-72
2022/03/26 09:29:40;;;;;;;45.58;30.80;;;15.30;66.90;;;;;;5075554;27;90647;-72
2022/03/26 09:32:07;;;;;;;49.78;30.85;;;15.30;67.20;;;;;;5075424;27;90855;-72
2022/03/26 09:34:34;;;;;;;45.65;29.98;;;15.30;67.00;;;;;;5058755;27;88845;-73
2022/03/26 09:37:01;;;;;;;42.33;28.85;;;15.30;67.50;;;;;;5059500;27;101524;-72
2022/03/26 09:39:28;;;;;;;46.50;29.40;;;15.40;67.40;;;;;;5058432;27;91673;-72
2022/03/26 09:41:57;;;;;;;37.63;23.25;;;15.40;67.50;;;;;;5058583;27;88571;-73
2022/03/26 09:44:24;;;;;;;36.33;24.38;;;15.40;67.30;;;;;;5075081;27;92022;-72
2022/03/26 09:46:51;;;;;;;37.25;23.75;;;15.40;67.30;;;;;;5059660;27;89618;-73
2022/03/26 09:49:18;;;;;;;40.42;26.08;;;15.50;66.80;;;;;;5058265;27;89579;-72
2022/03/26 09:51:46;;;;;;;27.60;19.20;;;15.50;66.30;;;;;;5059686;27;88580;-72
2022/03/26 09:54:15;;;;;;;26.95;18.63;;;15.50;65.40;;;;;;5058261;27;88901;-73
2022/03/26 09:56:43;;;;;;;26.92;20.02;;;15.70;65.10;;;;;;5059213;27;89367;-73
2022/03/26 09:59:10;;;;;;;23.70;17.88;;;15.70;65.10;;;;;;5057682;27;101201;-72
2022/03/26 10:01:36;;;;;;;24.25;18.25;;;15.80;64.50;;;;;;5059664;27;88754;-72
2022/03/26 10:04:12;;;;;;;21.35;15.35;;;15.90;64.40;;;;;;5058079;27;88595;-72
2022/03/26 10:06:56;;;;;;;21.30;15.70;;;16.00;63.60;;;;;;5074786;27;92140;-72
2022/03/26 10:09:32;;;;;;;;;;;16.10;63.20;;;;;;5059505;27;89001;-73
2022/03/26 10:12:01;;;;;;;19.40;14.15;;;16.10;62.90;;;;;;5059683;27;88041;-73
2022/03/26 10:14:41;;;;;;;17.90;13.95;;;16.20;62.80;;;;;;5059210;27;88822;-72
2022/03/26 10:17:18;;;;;;;17.55;12.68;;;16.30;62.50;;;;;;5074838;27;88578;-72
2022/03/26 10:19:46;;;;;;;19.75;13.95;;;16.40;61.60;;;;;;5059212;27;88959;-72
2022/03/26 10:22:55;;;;;;;19.13;13.77;;;16.40;61.80;;;;;;5074410;27;91149;-72
2022/03/26 10:25:23;;;;;;;20.27;14.20;;;16.50;61.50;;;;;;5044857;27;89378;-72
2022/03/26 10:27:52;;;;;;;19.65;12.18;;;16.40;61.50;;;;;;5057909;27;89438;-73
2022/03/26 10:33:28;;;;;;;19.58;13.55;;;16.50;61.70;;;;;;5074301;27;92427;-73
2022/03/26 10:35:56;;;;;;;22.88;17.02;;;16.60;62.00;;;;;;5048301;27;89601;-73
2022/03/26 10:38:32;;;;;;;23.05;17.70;;;16.60;62.90;;;;;;5058545;27;89606;-73
2022/03/26 10:41:06;;;;;;;27.85;18.27;;;16.60;62.50;;;;;;5059048;27;89251;-73
2022/03/26 10:43:37;;;;;;;20.10;13.32;;;16.70;63.30;;;;;;5074376;27;89555;-72
2022/03/26 10:46:04;;;;;;;20.60;16.70;;;16.70;62.70;;;;;;5057776;27;89044;-73
2022/03/26 10:48:34;;;;;;;22.20;16.52;;;16.80;62.80;;;;;;5057378;27;89307;-73
2022/03/26 10:51:06;;;;;;;19.10;13.52;;;16.80;63.20;;;;;;5058487;27;88655;-73
2022/03/26 10:53:44;;;;;;;16.98;12.00;;;16.80;62.40;;;;;;5059052;27;88415;-73
2022/03/26 10:56:13;;;;;;;16.30;12.23;;;16.90;62.40;;;;;;5040017;27;91306;-73
2022/03/26 10:58:43;;;;;;;18.10;12.43;;;16.90;61.90;;;;;;5058419;27;89474;-73
2022/03/26 11:01:10;;;;;;;20.13;11.70;;;16.90;62.50;;;;;;5073822;27;91676;-73
2022/03/26 11:03:37;;;;;;;15.48;10.75;;;16.90;61.80;;;;;;5057029;27;88514;-73
2022/03/26 11:06:09;;;;;;;16.55;12.40;;;16.90;62.00;;;;;;5058063;27;99238;-73
2022/03/26 11:08:37;;;;;;;17.15;13.30;;;17.00;61.70;;;;;;5056934;27;91903;-73
2022/03/26 11:11:12;;;;;;;14.27;9.82;;;17.10;62.60;;;;;;5058322;27;88999;-73
2022/03/26 11:13:46;;;;;;;14.57;11.02;;;17.10;61.50;;;;;;5074677;27;88462;-72
2022/03/26 11:16:40;;;;;;;16.98;11.18;;;17.10;61.10;;;;;;5073772;27;91342;-72
2022/03/26 11:19:22;;;;;;;13.57;10.55;;;17.10;60.70;;;;;;5058536;27;89403;-72
2022/03/26 11:22:14;;;;;;;11.82;9.73;;;17.10;60.90;;;;;;5058537;27;88897;-73
2022/03/26 11:25:02;;;;;;;13.77;10.40;;;17.10;61.20;;;;;;5074032;27;88254;-73
2022/03/26 11:27:38;;;;;;;12.90;9.82;;;17.10;60.70;;;;;;5056258;27;92070;-73
2022/03/26 11:30:08;;;;;;;13.80;10.05;;;17.10;60.70;;;;;;5059090;27;89486;-73
2022/03/26 11:32:45;;;;;;;11.88;8.38;;;17.10;60.80;;;;;;5058166;27;88380;-73
2022/03/26 11:35:14;;;;;;;11.15;8.90;;;17.10;60.40;;;;;;5074549;27;91214;-73
2022/03/26 11:37:53;;;;;;;9.93;8.27;;;17.20;60.70;;;;;;5057474;27;88964;-73
2022/03/26 11:40:40;;;;;;;12.02;7.88;;;17.20;60.30;;;;;;5057528;27;88767;-73
2022/03/26 11:43:07;;;;;;;10.05;7.18;;;17.20;60.00;;;;;;5074157;27;88197;-73
2022/03/26 11:51:26;;;;;;;11.43;8.23;;;17.30;60.80;;;;;;5073878;27;90410;-73
2022/03/26 11:53:59;;;;;;;10.55;8.30;;;17.30;60.90;;;;;;5039862;27;90447;-73
2022/03/26 11:56:28;;;;;;;9.55;7.40;;;17.20;60.30;;;;;;5058241;27;88395;-72
2022/03/26 11:59:15;;;;;;;12.80;8.45;;;17.30;60.40;;;;;;5056460;27;101431;-73
2022/03/26 12:01:44;;;;;;;14.10;8.77;;;17.30;60.50;;;;;;5043051;27;89734;-73
2022/03/26 12:04:14;;;;;;;10.52;9.38;;;17.40;60.90;;;;;;5058082;27;87943;-73
2022/03/26 12:06:48;;;;;;;12.10;8.52;;;17.40;60.60;;;;;;5058050;27;88446;-73
2022/03/26 12:09:29;;;;;;;12.05;9.27;;;17.60;60.10;;;;;;5073963;27;91559;-73
2022/03/26 12:12:05;;;;;;;10.70;8.38;;;17.80;59.80;;;;;;5058705;27;88659;-73
2022/03/26 12:14:33;;;;;;;10.70;8.98;;;18.10;58.80;;;;;;5058252;27;87993;-73
2022/03/26 12:17:00;;;;;;;12.15;7.97;;;18.20;57.80;;;;;;5055894;27;88840;-70
2022/03/26 12:19:45;;;;;;;8.30;6.07;;;18.40;57.80;;;;;;5048136;27;89413;-70
2022/03/26 12:22:20;;;;;;;8.90;7.82;;;18.60;56.50;;;;;;5037902;28;88176;-70
2022/03/26 12:24:48;;;;;;;11.10;7.80;;;18.60;56.30;;;;;;5036191;28;89474;-71
2022/03/26 12:27:15;;;;;;;9.75;8.07;;;18.60;55.50;;;;;;5019796;28;91232;-73
2022/03/26 12:29:43;;;;;;;9.35;7.05;;;18.70;55.40;;;;;;5037519;27;88722;-70
2022/03/26 12:32:10;;;;;;;7.72;6.55;;;18.80;55.10;;;;;;5037322;27;93595;-73
2022/03/26 12:34:59;;;;;;;7.97;7.18;;;18.80;54.10;;;;;;5037074;27;88046;-73
2022/03/26 12:37:26;;;;;;;9.45;6.05;;;19.00;54.20;;;;;;5039886;27;91459;-73
2022/03/26 12:39:53;;;;;;;6.05;5.45;;;18.80;54.00;;;;;;5041262;28;87917;-71
2022/03/26 12:42:21;;;;;;;6.55;5.85;;;18.70;54.40;;;;;;5040038;28;88613;-70
2022/03/26 12:44:48;;;;;;;6.53;5.75;;;18.70;55.70;;;;;;5039097;27;88806;-71
2022/03/26 12:47:27;;;;;;;8.35;4.93;;;18.70;54.50;;;;;;5039889;28;88379;-73